Time;durP1;ratioP1;P1;durP2;ratioP2;P2;SDS_P1;SDS_P2;PMS_P1;PMS_P2;Temp;Humidity;BMP_temperature;BMP_pressure;BME280_temperature;BME280_humidity;BME280_pressure;Samples;Min_cycle;Max_cycle;Signal;HPM_P1;HPM_P2
2022/08/20 00:02:58;;;;;;;;;;;21.10;99.90;;;;;;8410894;28;19931;-70
2022/08/20 00:07:00;;;;;;;;;;;21.10;99.90;;;;;;8411937;28;19929;-70
2022/08/20 00:11:03;;;;;;;;;;;21.10;99.90;;;;;;8443810;27;19924;-70
2022/08/20 00:15:05;;;;;;;;;;;21.10;99.90;;;;;;8435873;28;19925;-70
2022/08/20 00:19:07;;;;;;;;;;;21.10;99.90;;;;;;8412157;28;19978;-70
2022/08/20 00:23:09;;;;;;;;;;;21.00;99.90;;;;;;8421415;28;19926;-70
2022/08/20 00:27:11;;;;;;;;;;;21.00;99.90;;;;;;8403079;28;21674;-70
2022/08/20 00:31:16;;;;;;;;;;;21.00;99.90;;;;;;8426011;28;19935;-70
2022/08/20 00:35:18;;;;;;;;;;;21.00;99.90;;;;;;8417599;28;20395;-70
2022/08/20 00:39:20;;;;;;;;;;;21.00;99.90;;;;;;8407342;28;19924;-70
2022/08/20 00:43:30;;;;;;;;;;;21.10;99.90;;;;;;8391247;28;19925;-70
2022/08/20 00:47:32;;;;;;;;;;;21.10;99.90;;;;;;8423623;28;19924;-70
2022/08/20 00:51:42;;;;;;;;;;;21.00;99.90;;;;;;8429260;28;19928;-70
2022/08/20 00:55:44;;;;;;;;;;;21.00;99.90;;;;;;8407906;28;19928;-70
2022/08/20 00:59:48;;;;;;;;;;;21.00;99.90;;;;;;8428195;28;19934;-70
2022/08/20 01:03:52;;;;;;;;;;;21.00;99.90;;;;;;8426358;28;20291;-70
2022/08/20 01:07:54;;;;;;;;;;;21.00;99.90;;;;;;8423573;28;19944;-70
2022/08/20 01:11:56;;;;;;;;;;;21.00;99.90;;;;;;8424986;28;19924;-70
2022/08/20 01:15:58;;;;;;;;;;;20.90;99.90;;;;;;8425365;28;19928;-70
2022/08/20 01:20:16;;;;;;;;;;;20.90;99.90;;;;;;8430493;28;19927;-70
2022/08/20 01:24:27;;;;;;;;;;;20.90;99.90;;;;;;8416702;28;19939;-70
2022/08/20 01:28:35;;;;;;;;;;;20.90;99.90;;;;;;8412712;28;20387;-70
2022/08/20 01:32:36;;;;;;;;;;;20.80;99.90;;;;;;8418927;28;19931;-70
2022/08/20 01:36:40;;;;;;;;;;;20.80;99.90;;;;;;8424605;28;19935;-70
2022/08/20 01:40:53;;;;;;;;;;;20.80;99.90;;;;;;8425519;28;19927;-70
2022/08/20 01:44:55;;;;;;;;;;;20.80;99.90;;;;;;8412092;28;19924;-70
2022/08/20 01:48:58;;;;;;;;;;;20.80;99.90;;;;;;8411336;28;19934;-70
2022/08/20 01:53:03;;;;;;;;;;;20.80;99.90;;;;;;8421645;28;19936;-70
2022/08/20 01:57:15;;;;;;;;;;;20.80;99.90;;;;;;8399241;28;19928;-70
2022/08/20 02:01:22;;;;;;;;;;;20.80;99.90;;;;;;8421560;28;19924;-70
2022/08/20 02:05:24;;;;;;;;;;;20.70;99.90;;;;;;8421832;28;20013;-70
2022/08/20 02:09:32;;;;;;;;;;;20.70;99.90;;;;;;8425494;28;19928;-70
2022/08/20 02:13:34;;;;;;;;;;;20.70;99.90;;;;;;8415284;28;20389;-70
2022/08/20 02:17:36;;;;;;;;;;;20.70;99.90;;;;;;8406261;28;19931;-70
2022/08/20 02:21:43;;;;;;;;;;;20.70;99.90;;;;;;8431894;28;20372;-70
2022/08/20 02:25:46;;;;;;;;;;;20.70;99.90;;;;;;8406942;28;19939;-70
2022/08/20 02:29:48;;;;;;;;;;;20.70;99.90;;;;;;8439521;28;19978;-70
2022/08/20 02:33:50;;;;;;;;;;;20.70;99.90;;;;;;8441115;28;19943;-70
2022/08/20 02:38:11;;;;;;;;;;;20.70;99.90;;;;;;8424577;28;20015;-70
2022/08/20 02:42:13;;;;;;;;;;;20.70;99.90;;;;;;8429150;28;19931;-70
2022/08/20 02:46:17;;;;;;;;;;;20.70;99.90;;;;;;8435921;28;20302;-70
2022/08/20 02:50:19;;;;;;;;;;;20.70;99.90;;;;;;8446017;28;19924;-70
2022/08/20 02:54:21;;;;;;;;;;;20.60;99.90;;;;;;8432538;28;19934;-70
2022/08/20 02:58:23;;;;;;;;;;;20.60;99.90;;;;;;8417169;28;19946;-70
2022/08/20 03:02:24;;;;;;;;;;;20.60;99.90;;;;;;8428968;28;19932;-70
2022/08/20 03:06:26;;;;;;;;;;;20.60;99.90;;;;;;8441172;28;19932;-70
2022/08/20 03:10:32;;;;;;;;;;;20.60;99.90;;;;;;8429025;28;20401;-70
2022/08/20 03:14:34;;;;;;;;;;;20.60;99.90;;;;;;8444941;28;20006;-69
2022/08/20 03:18:38;;;;;;;;;;;20.50;99.90;;;;;;8415656;28;20130;-70
2022/08/20 03:22:40;;;;;;;;;;;20.60;99.90;;;;;;8437543;28;19932;-70
2022/08/20 03:26:41;;;;;;;;;;;20.50;99.90;;;;;;8417849;28;19925;-70
2022/08/20 03:30:43;;;;;;;;;;;20.50;99.90;;;;;;8405583;28;19924;-70
2022/08/20 03:34:45;;;;;;;;;;;20.50;99.90;;;;;;8417253;28;19928;-70
2022/08/20 03:38:46;;;;;;;;;;;20.50;99.90;;;;;;8412008;28;20240;-70
2022/08/20 03:42:48;;;;;;;;;;;20.50;99.90;;;;;;8426406;28;19932;-70
2022/08/20 03:46:50;;;;;;;;;;;20.50;99.90;;;;;;8421720;28;19924;-69
2022/08/20 03:50:51;;;;;;;;;;;20.50;99.90;;;;;;8415587;28;19924;-70
2022/08/20 03:54:54;;;;;;;;;;;20.40;99.90;;;;;;8408749;28;19928;-70
2022/08/20 03:58:55;;;;;;;;;;;20.40;99.90;;;;;;8408296;28;19961;-70
2022/08/20 04:02:57;;;;;;;;;;;20.40;99.90;;;;;;8407368;28;19961;-70
2022/08/20 04:06:58;;;;;;;;;;;20.40;99.90;;;;;;8416344;28;19934;-70
2022/08/20 04:11:00;;;;;;;;;;;20.30;99.90;;;;;;8397243;28;19925;-70
2022/08/20 04:15:02;;;;;;;;;;;20.30;99.90;;;;;;8421719;28;19931;-70
2022/08/20 04:19:05;;;;;;;;;;;20.30;99.90;;;;;;8408000;28;20359;-70
2022/08/20 04:23:07;;;;;;;;;;;20.20;99.90;;;;;;8410705;28;19924;-70
2022/08/20 04:27:09;;;;;;;;;;;20.20;99.90;;;;;;8430039;28;20411;-70
2022/08/20 04:31:13;;;;;;;;;;;20.10;99.90;;;;;;8430129;28;19931;-70
2022/08/20 04:35:16;;;;;;;;;;;20.10;99.90;;;;;;8407725;28;19931;-70
2022/08/20 04:39:18;;;;;;;;;;;20.10;99.90;;;;;;8400102;28;20344;-70
2022/08/20 04:43:22;;;;;;;;;;;20.00;99.90;;;;;;8407752;28;19923;-70
2022/08/20 04:47:23;;;;;;;;;;;20.00;99.90;;;;;;8407481;28;19931;-70
2022/08/20 04:51:29;;;;;;;;;;;19.90;99.90;;;;;;8418113;28;20287;-70
2022/08/20 04:55:32;;;;;;;;;;;19.90;99.90;;;;;;8425533;28;19929;-70
2022/08/20 04:59:33;;;;;;;;;;;19.90;99.90;;;;;;8434101;28;19925;-70
2022/08/20 05:03:39;;;;;;;;;;;19.80;99.90;;;;;;8438726;28;19927;-70
2022/08/20 05:07:46;;;;;;;;;;;19.80;99.90;;;;;;8437223;28;19924;-70
2022/08/20 05:11:48;;;;;;;;;;;19.80;99.90;;;;;;8428694;28;20400;-70
2022/08/20 05:15:50;;;;;;;;;;;19.80;99.90;;;;;;8423627;28;19928;-70
2022/08/20 05:19:51;;;;;;;;;;;19.70;99.90;;;;;;8441035;28;20387;-70
2022/08/20 05:23:53;;;;;;;;;;;19.70;99.90;;;;;;8431784;28;20378;-70
2022/08/20 05:27:59;;;;;;;;;;;19.60;99.90;;;;;;8456478;28;19931;-70
2022/08/20 05:32:01;;;;;;;;;;;19.60;99.90;;;;;;8431571;28;20299;-70
2022/08/20 05:36:05;;;;;;;;;;;19.60;99.90;;;;;;8419985;28;19928;-69
2022/08/20 05:40:10;;;;;;;;;;;19.60;99.90;;;;;;8408123;28;19923;-70
2022/08/20 05:44:14;;;;;;;;;;;19.50;99.90;;;;;;8432476;28;20660;-70
2022/08/20 05:48:17;;;;;;;;;;;19.50;99.90;;;;;;8448374;28;20256;-70
2022/08/20 05:52:19;;;;;;;;;;;19.50;99.90;;;;;;8423428;28;20381;-70
2022/08/20 05:56:20;;;;;;;;;;;19.60;99.90;;;;;;8445538;28;19928;-69
2022/08/20 06:00:28;;;;;;;;;;;19.60;99.90;;;;;;8410199;28;19931;-70
2022/08/20 06:04:30;;;;;;;;;;;19.70;99.90;;;;;;8431965;28;19978;-70
2022/08/20 06:08:32;;;;;;;;;;;19.80;99.90;;;;;;8431891;28;19932;-70
2022/08/20 06:12:34;;;;;;;;;;;19.90;99.90;;;;;;8408288;28;19931;-70
2022/08/20 06:16:35;;;;;;;;;;;19.90;99.90;;;;;;8441565;28;20382;-70
2022/08/20 06:20:38;;;;;;;;;;;20.00;99.90;;;;;;8432333;28;19936;-70
2022/08/20 06:24:40;;;;;;;;;;;20.10;99.90;;;;;;8419624;28;19924;-70
2022/08/20 06:28:42;;;;;;;;;;;20.20;99.90;;;;;;8431325;28;19923;-69
2022/08/20 06:32:44;;;;;;;;;;;20.20;99.90;;;;;;8434856;28;19950;-70
2022/08/20 06:36:46;;;;;;;;;;;20.30;99.90;;;;;;8414106;28;19932;-69
2022/08/20 06:40:48;;;;;;;;;;;20.30;99.90;;;;;;8426142;28;19931;-69
2022/08/20 06:44:49;;;;;;;;;;;20.40;99.90;;;;;;8412908;28;19931;-70
2022/08/20 06:48:51;;;;;;;;;;;20.50;99.90;;;;;;8426647;28;19983;-70
2022/08/20 06:52:53;;;;;;;;;;;20.60;99.90;;;;;;8416580;28;19927;-70
2022/08/20 06:56:55;;;;;;;;;;;20.60;99.90;;;;;;8444844;28;20025;-70
2022/08/20 07:00:57;;;;;;;;;;;20.60;99.90;;;;;;8428990;28;19971;-69
2022/08/20 07:05:03;;;;;;;;;;;20.70;99.90;;;;;;8422113;28;19932;-69
2022/08/20 07:09:05;;;;;;;;;;;20.70;99.90;;;;;;8430524;28;19924;-70
2022/08/20 07:13:08;;;;;;;;;;;20.80;99.90;;;;;;8432381;28;19924;-70
2022/08/20 07:17:09;;;;;;;;;;;20.80;99.90;;;;;;8440715;28;19928;-70
2022/08/20 07:21:12;;;;;;;;;;;20.90;99.90;;;;;;8442984;28;19924;-70
2022/08/20 07:25:15;;;;;;;;;;;20.90;99.90;;;;;;8449595;28;19940;-70
2022/08/20 07:29:17;;;;;;;;;;;21.00;99.90;;;;;;8432939;28;19924;-70
2022/08/20 07:33:22;;;;;;;;;;;21.00;99.90;;;;;;8435684;28;19924;-70
2022/08/20 07:37:23;;;;;;;;;;;21.10;99.90;;;;;;8421270;28;19924;-70
2022/08/20 07:41:25;;;;;;;;;;;21.10;99.90;;;;;;8415710;28;19935;-70
2022/08/20 07:45:27;;;;;;;;;;;21.10;99.90;;;;;;8424274;28;19924;-70
2022/08/20 07:49:29;;;;;;;;;;;21.20;99.90;;;;;;8445256;28;19931;-70
2022/08/20 07:53:32;;;;;;;;;;;21.20;99.90;;;;;;8431635;28;19931;-70
2022/08/20 07:57:37;;;;;;;;;;;21.30;99.90;;;;;;8419954;28;19928;-70
2022/08/20 08:01:38;;;;;;;;;;;21.40;99.90;;;;;;8430528;28;20650;-70
2022/08/20 08:05:42;;;;;;;;;;;21.50;99.90;;;;;;8435393;28;20279;-70
2022/08/20 08:09:44;;;;;;;;;;;21.40;99.90;;;;;;8430618;28;19923;-70
2022/08/20 08:13:45;;;;;;;;;;;21.50;99.90;;;;;;8420896;28;20363;-70
2022/08/20 08:17:48;;;;;;;;;;;21.60;99.90;;;;;;8404279;28;19924;-70
2022/08/20 08:21:50;;;;;;;;;;;21.60;99.90;;;;;;8420525;28;19947;-70
2022/08/20 08:25:51;;;;;;;;;;;21.70;99.90;;;;;;8415755;28;19947;-70
2022/08/20 08:29:53;;;;;;;;;;;21.70;99.90;;;;;;8416952;28;19936;-70
2022/08/20 08:33:55;;;;;;;;;;;21.70;99.90;;;;;;8438592;28;19939;-70
2022/08/20 08:37:59;;;;;;;;;;;21.70;99.90;;;;;;8425021;28;19929;-70
2022/08/20 08:42:03;;;;;;;;;;;21.70;99.90;;;;;;8432481;28;19924;-70
2022/08/20 08:46:08;;;;;;;;;;;21.80;99.90;;;;;;8448186;28;19923;-70
2022/08/20 08:50:15;;;;;;;;;;;21.80;99.90;;;;;;8440421;28;19924;-70
2022/08/20 08:54:27;;;;;;;;;;;21.80;99.90;;;;;;8420298;28;20368;-70
2022/08/20 08:58:28;;;;;;;;;;;21.90;99.90;;;;;;8437848;28;20271;-70
2022/08/20 09:02:31;;;;;;;;;;;21.80;99.90;;;;;;8409619;28;19924;-70
2022/08/20 09:06:32;;;;;;;;;;;21.90;99.90;;;;;;8425306;28;19932;-70
2022/08/20 09:10:34;;;;;;;;;;;21.90;99.90;;;;;;8440322;27;19934;-69
2022/08/20 09:14:36;;;;;;;;;;;21.90;99.90;;;;;;8437800;28;19924;-70
2022/08/20 09:18:38;;;;;;;;;;;21.90;99.90;;;;;;8440108;28;20378;-70
2022/08/20 09:22:40;;;;;;;;;;;21.90;99.90;;;;;;8401265;28;19931;-70
2022/08/20 09:26:41;;;;;;;;;;;22.00;99.90;;;;;;8425488;28;19931;-70
2022/08/20 09:30:43;;;;;;;;;;;22.00;99.90;;;;;;8439779;28;19924;-70
2022/08/20 09:34:47;;;;;;;;;;;22.10;99.90;;;;;;8430323;28;19924;-70
2022/08/20 09:38:48;;;;;;;;;;;22.10;99.90;;;;;;8423536;28;20325;-70
2022/08/20 09:42:50;;;;;;;;;;;22.10;99.90;;;;;;8445084;28;20624;-70
2022/08/20 09:46:51;;;;;;;;;;;22.10;99.90;;;;;;8442189;28;19935;-70
2022/08/20 09:50:53;;;;;;;;;;;22.10;99.90;;;;;;8423330;28;19931;-70
2022/08/20 09:55:00;;;;;;;;;;;22.20;99.90;;;;;;8439135;28;19927;-70
2022/08/20 09:59:01;;;;;;;;;;;22.30;99.90;;;;;;8432049;28;19931;-70
2022/08/20 10:03:03;;;;;;;;;;;22.30;99.90;;;;;;8420555;28;20343;-70
2022/08/20 10:07:08;;;;;;;;;;;22.30;99.90;;;;;;8422606;28;19956;-70
2022/08/20 10:11:09;;;;;;;;;;;22.40;99.90;;;;;;8417257;28;20290;-70
2022/08/20 10:15:11;;;;;;;;;;;22.40;99.90;;;;;;8430641;28;20332;-70
2022/08/20 10:19:13;;;;;;;;;;;22.50;99.90;;;;;;8439077;28;19924;-70
2022/08/20 10:23:15;;;;;;;;;;;22.50;99.90;;;;;;8421815;28;19924;-69
2022/08/20 10:27:16;;;;;;;;;;;22.70;99.90;;;;;;8412398;28;19936;-70
2022/08/20 10:31:18;;;;;;;;;;;22.70;99.90;;;;;;8434080;28;19924;-70
2022/08/20 10:35:20;;;;;;;;;;;22.80;99.90;;;;;;8435172;28;19923;-70
2022/08/20 10:39:21;;;;;;;;;;;22.90;99.90;;;;;;8399643;28;19924;-70
2022/08/20 10:43:23;;;;;;;;;;;22.90;99.90;;;;;;8410897;28;19924;-70
2022/08/20 10:47:26;;;;;;;;;;;22.90;99.90;;;;;;8404211;28;19931;-70
2022/08/20 10:51:28;;;;;;;;;;;22.90;99.90;;;;;;8412388;28;20307;-70
2022/08/20 10:55:32;;;;;;;;;;;22.90;99.90;;;;;;8407456;28;19936;-70
2022/08/20 10:59:38;;;;;;;;;;;22.90;99.90;;;;;;8411316;28;19924;-70
2022/08/20 11:03:40;;;;;;;;;;;23.00;99.90;;;;;;8398586;28;20344;-70
2022/08/20 11:07:42;;;;;;;;;;;23.00;99.90;;;;;;8405291;28;19928;-69
2022/08/20 11:11:51;;;;;;;;;;;23.20;99.90;;;;;;8413362;28;19935;-70
2022/08/20 11:15:53;;;;;;;;;;;23.20;99.90;;;;;;8438296;27;19943;-69
2022/08/20 11:19:55;;;;;;;;;;;23.20;99.90;;;;;;8422746;28;20303;-70
2022/08/20 11:23:57;;;;;;;;;;;23.00;99.90;;;;;;8392047;28;19932;-70
2022/08/20 11:28:03;;;;;;;;;;;23.00;99.90;;;;;;8421833;28;19924;-70
2022/08/20 11:32:05;;;;;;;;;;;23.00;99.90;;;;;;8415691;28;20319;-70
2022/08/20 11:36:07;;;;;;;;;;;23.00;99.90;;;;;;8423102;28;20002;-70
2022/08/20 11:40:10;;;;;;;;;;;23.00;99.90;;;;;;8413065;28;19931;-70
2022/08/20 11:44:12;;;;;;;;;;;23.10;99.90;;;;;;8415896;28;20001;-70
2022/08/20 11:48:22;;;;;;;;;;;23.20;99.90;;;;;;8428944;28;20368;-70
2022/08/20 11:52:24;;;;;;;;;;;23.20;99.90;;;;;;8411053;28;19924;-70
2022/08/20 11:56:25;;;;;;;;;;;23.20;99.90;;;;;;8379685;28;19924;-70
2022/08/20 12:00:28;;;;;;;;;;;23.20;99.90;;;;;;8425356;28;19928;-70
2022/08/20 12:04:33;;;;;;;;;;;23.20;99.90;;;;;;8387541;28;19928;-70
2022/08/20 12:08:35;;;;;;;;;;;23.20;99.90;;;;;;8398890;28;19928;-70
2022/08/20 12:12:38;;;;;;;;;;;23.30;99.90;;;;;;8434375;28;20887;-70
2022/08/20 12:16:39;;;;;;;;;;;23.30;99.90;;;;;;8453956;28;19935;-70
2022/08/20 12:20:41;;;;;;;;;;;23.50;99.90;;;;;;8404771;28;19936;-70
2022/08/20 12:24:42;;;;;;;;;;;23.70;99.90;;;;;;8444024;28;19924;-70
2022/08/20 12:28:44;;;;;;;;;;;23.70;99.90;;;;;;8421968;28;19932;-70
2022/08/20 12:32:46;;;;;;;;;;;23.80;99.90;;;;;;8441934;28;19978;-70
2022/08/20 12:36:48;;;;;;;;;;;23.90;99.90;;;;;;8436126;28;19939;-69
2022/08/20 12:40:49;;;;;;;;;;;24.00;99.90;;;;;;8432197;28;20335;-69
2022/08/20 12:44:51;;;;;;;;;;;24.00;99.90;;;;;;8443821;28;20371;-69
2022/08/20 12:48:53;;;;;;;;;;;23.90;99.90;;;;;;8442838;28;19942;-70
2022/08/20 12:52:54;;;;;;;;;;;23.80;99.90;;;;;;8439507;28;20271;-70
2022/08/20 12:56:56;;;;;;;;;;;23.80;99.90;;;;;;8440137;28;19924;-69
2022/08/20 13:00:58;;;;;;;;;;;23.90;99.90;;;;;;8436073;28;19935;-69
2022/08/20 13:04:59;;;;;;;;;;;24.00;99.90;;;;;;8438433;28;19928;-69
2022/08/20 13:09:05;;;;;;;;;;;24.00;99.90;;;;;;8424749;28;19924;-69
2022/08/20 13:13:07;;;;;;;;;;;23.90;99.90;;;;;;8451420;28;19934;-70
2022/08/20 13:17:09;;;;;;;;;;;23.80;99.90;;;;;;8446061;28;19946;-70
2022/08/20 13:21:10;;;;;;;;;;;23.80;99.90;;;;;;8426021;28;20277;-69
2022/08/20 13:25:12;;;;;;;;;;;23.70;99.90;;;;;;8463127;28;20000;-70
2022/08/20 13:29:15;;;;;;;;;;;23.60;99.90;;;;;;8430603;28;19928;-70
2022/08/20 13:33:16;;;;;;;;;;;23.70;99.90;;;;;;8430923;28;19938;-70
2022/08/20 13:37:19;;;;;;;;;;;23.80;99.90;;;;;;8435988;28;19927;-70
2022/08/20 13:41:25;;;;;;;;;;;23.80;99.90;;;;;;8432776;28;20283;-70
2022/08/20 13:45:27;;;;;;;;;;;23.90;99.90;;;;;;8429938;28;20333;-69
2022/08/20 13:49:29;;;;;;;;;;;24.00;99.90;;;;;;8439262;28;20517;-69
2022/08/20 13:53:34;;;;;;;;;;;24.00;99.90;;;;;;8464289;27;19923;-70
2022/08/20 13:57:36;;;;;;;;;;;23.90;99.90;;;;;;8442678;28;19924;-70
2022/08/20 14:01:37;;;;;;;;;;;23.90;99.90;;;;;;8435136;28;19939;-70
2022/08/20 14:05:39;;;;;;;;;;;24.00;99.90;;;;;;8422186;28;19928;-70
2022/08/20 14:09:42;;;;;;;;;;;24.10;99.90;;;;;;8442487;28;19952;-69
2022/08/20 14:13:44;;;;;;;;;;;24.20;99.90;;;;;;8436353;28;19955;-69
2022/08/20 14:17:50;;;;;;;;;;;24.20;99.90;;;;;;8417046;28;19932;-70
2022/08/20 14:21:51;;;;;;;;;;;24.20;99.90;;;;;;8411982;28;19924;-70
2022/08/20 14:25:53;;;;;;;;;;;24.20;99.90;;;;;;8437923;28;19962;-70
2022/08/20 14:29:55;;;;;;;;;;;24.10;99.90;;;;;;8430139;28;20288;-70
2022/08/20 14:33:56;;;;;;;;;;;24.00;99.90;;;;;;8454430;27;19924;-70
2022/08/20 14:37:58;;;;;;;;;;;23.90;99.90;;;;;;8424605;28;19935;-70
2022/08/20 14:41:59;;;;;;;;;;;23.80;99.90;;;;;;8448219;28;19928;-70
2022/08/20 14:46:01;;;;;;;;;;;23.80;99.90;;;;;;8435823;28;19936;-70
2022/08/20 14:50:08;;;;;;;;;;;23.90;99.90;;;;;;8433526;28;21938;-70
2022/08/20 14:54:10;;;;;;;;;;;23.90;99.90;;;;;;8436559;28;19930;-69
2022/08/20 14:58:12;;;;;;;;;;;23.80;99.90;;;;;;8460257;27;20383;-70
2022/08/20 15:02:14;;;;;;;;;;;23.80;99.90;;;;;;8428455;28;19945;-70
2022/08/20 15:06:18;;;;;;;;;;;23.90;99.90;;;;;;8428613;28;21591;-70
2022/08/20 15:10:30;;;;;;;;;;;24.00;99.90;;;;;;8445134;28;19924;-70
2022/08/20 15:14:31;;;;;;;;;;;24.10;99.90;;;;;;8429903;28;19923;-70
2022/08/20 15:18:34;;;;;;;;;;;24.20;99.90;;;;;;8426399;27;20291;-70
2022/08/20 15:22:36;;;;;;;;;;;24.20;99.90;;;;;;8426648;28;19923;-70
2022/08/20 15:26:38;;;;;;;;;;;24.10;99.90;;;;;;8430777;28;19934;-70
2022/08/20 15:30:40;;;;;;;;;;;24.10;99.90;;;;;;8425920;28;19928;-70
2022/08/20 15:34:42;;;;;;;;;;;24.00;99.90;;;;;;8418425;28;20291;-70
2022/08/20 15:38:43;;;;;;;;;;;24.10;99.90;;;;;;8428859;28;20143;-70
2022/08/20 15:42:45;;;;;;;;;;;24.20;99.90;;;;;;8432838;28;19924;-70
2022/08/20 15:46:47;;;;;;;;;;;24.00;99.90;;;;;;8446685;28;19931;-70
2022/08/20 15:51:01;;;;;;;;;;;24.00;99.90;;;;;;8425250;28;19928;-70
2022/08/20 15:55:04;;;;;;;;;;;23.90;99.90;;;;;;8432980;28;19924;-70
2022/08/20 15:59:14;;;;;;;;;;;23.70;99.90;;;;;;8437582;28;19928;-70
2022/08/20 16:03:24;;;;;;;;;;;24.00;99.90;;;;;;8424263;28;19931;-70
2022/08/20 16:07:30;;;;;;;;;;;24.20;99.90;;;;;;8417737;28;19924;-70
2022/08/20 16:11:32;;;;;;;;;;;24.20;99.90;;;;;;8406235;28;19933;-70
2022/08/20 16:15:38;;;;;;;;;;;24.60;99.90;;;;;;8391012;28;19929;-70
2022/08/20 16:19:52;;;;;;;;;;;25.10;99.90;;;;;;8390192;28;19935;-70
2022/08/20 16:23:54;;;;;;;;;;;25.30;99.90;;;;;;8394845;28;19939;-70
2022/08/20 16:27:55;;;;;;;;;;;25.70;99.90;;;;;;8385765;28;19933;-70
2022/08/20 16:32:09;;;;;;;;;;;26.00;99.90;;;;;;8390177;28;19925;-70
2022/08/20 16:36:18;;;;;;;;;;;26.20;99.90;;;;;;8389920;28;19932;-70
2022/08/20 16:40:23;;;;;;;;;;;25.90;99.90;;;;;;8389312;28;19931;-70
2022/08/20 16:44:39;;;;;;;;;;;25.80;99.90;;;;;;8391658;28;20299;-70
2022/08/20 16:48:43;;;;;;;;;;;25.70;99.90;;;;;;8391411;28;20047;-70
2022/08/20 16:52:45;;;;;;;;;;;25.80;99.90;;;;;;8386440;28;19951;-70
2022/08/20 16:56:48;;;;;;;;;;;26.00;99.90;;;;;;8389839;28;20299;-70
2022/08/20 17:01:07;;;;;;;;;;;26.20;99.90;;;;;;8385621;28;20364;-70
2022/08/20 17:05:09;;;;;;;;;;;26.20;99.90;;;;;;8384525;28;20052;-70
2022/08/20 17:09:13;;;;;;;;;;;26.10;99.90;;;;;;8388794;28;19950;-70
2022/08/20 17:13:14;;;;;;;;;;;26.20;99.90;;;;;;8388969;28;20384;-70
2022/08/20 17:17:17;;;;;;;;;;;26.30;99.90;;;;;;8387805;28;19947;-70
2022/08/20 17:21:22;;;;;;;;;;;26.40;99.90;;;;;;8387403;28;20328;-69
2022/08/20 17:25:36;;;;;;;;;;;26.40;99.90;;;;;;8389586;28;19928;-70
2022/08/20 17:29:50;;;;;;;;;;;26.40;99.90;;;;;;8387315;28;19929;-70
2022/08/20 17:33:52;;;;;;;;;;;26.30;99.90;;;;;;8390594;28;19931;-70
2022/08/20 17:37:54;;;;;;;;;;;26.20;99.90;;;;;;8391342;28;20411;-70
2022/08/20 17:42:22;;;;;;;;;;;26.00;99.90;;;;;;8388033;28;19928;-70
2022/08/20 17:46:27;;;;;;;;;;;25.80;99.90;;;;;;8369700;28;19924;-70
2022/08/20 17:50:31;;;;;;;;;;;25.60;99.90;;;;;;8387374;28;19928;-70
2022/08/20 17:54:35;;;;;;;;;;;25.30;99.90;;;;;;8392279;28;19952;-70
2022/08/20 17:58:52;;;;;;;;;;;25.00;99.90;;;;;;8386178;28;20204;-70
2022/08/20 18:03:00;;;;;;;;;;;24.80;99.90;;;;;;8390670;28;19936;-70
2022/08/20 18:07:17;;;;;;;;;;;24.50;99.90;;;;;;8369924;28;19936;-70
2022/08/20 18:11:24;;;;;;;;;;;24.20;99.90;;;;;;8400823;28;19932;-70
2022/08/20 18:15:26;;;;;;;;;;;24.10;99.90;;;;;;8382167;28;20023;-70
2022/08/20 18:19:46;;;;;;;;;;;23.90;99.90;;;;;;8387457;28;19924;-70
2022/08/20 18:23:51;;;;;;;;;;;23.70;99.90;;;;;;8387520;28;19942;-70
2022/08/20 18:27:56;;;;;;;;;;;23.60;99.90;;;;;;8399351;28;19932;-70
2022/08/20 18:31:59;;;;;;;;;;;23.40;99.90;;;;;;8388289;28;19931;-70
2022/08/20 18:36:07;;;;;;;;;;;23.30;99.90;;;;;;8384634;28;20351;-70
2022/08/20 18:40:21;;;;;;;;;;;23.20;99.90;;;;;;8389607;28;19920;-70
2022/08/20 18:44:29;;;;;;;;;;;23.10;99.90;;;;;;8388857;28;19971;-70
2022/08/20 18:48:30;;;;;;;;;;;23.00;99.90;;;;;;8376982;28;19919;-70
2022/08/20 18:52:36;;;;;;;;;;;22.90;99.90;;;;;;8387444;28;19920;-70
2022/08/20 18:56:40;;;;;;;;;;;22.90;99.90;;;;;;8385558;28;19929;-69
2022/08/20 19:00:41;;;;;;;;;;;22.80;99.90;;;;;;8390325;28;19970;-70
2022/08/20 19:04:46;;;;;;;;;;;22.70;99.90;;;;;;8382888;28;19924;-70
2022/08/20 19:08:50;;;;;;;;;;;22.60;99.90;;;;;;8376338;28;19929;-70
2022/08/20 19:13:10;;;;;;;;;;;22.50;99.90;;;;;;8389337;28;19924;-70
2022/08/20 19:17:20;;;;;;;;;;;22.40;99.90;;;;;;8386909;28;19928;-70
2022/08/20 19:21:24;;;;;;;;;;;22.20;99.90;;;;;;8395968;28;19966;-69
2022/08/20 19:25:29;;;;;;;;;;;22.10;99.90;;;;;;8371934;28;19928;-70
2022/08/20 19:29:39;;;;;;;;;;;22.00;99.90;;;;;;8381881;28;19924;-70
2022/08/20 19:33:44;;;;;;;;;;;21.90;99.90;;;;;;8385823;28;19921;-70
2022/08/20 19:37:46;;;;;;;;;;;21.70;99.90;;;;;;8373887;28;20344;-69
2022/08/20 19:41:54;;;;;;;;;;;21.60;99.90;;;;;;8393105;28;20386;-70
2022/08/20 19:45:56;;;;;;;;;;;21.50;99.90;;;;;;8391292;28;19928;-69
2022/08/20 19:50:06;;;;;;;;;;;21.40;99.90;;;;;;8374806;28;19932;-70
2022/08/20 19:54:17;;;;;;;;;;;21.30;99.90;;;;;;8388748;28;19955;-69
2022/08/20 19:58:18;;;;;;;;;;;21.20;99.90;;;;;;8389259;28;19947;-69
2022/08/20 20:02:27;;;;;;;;;;;21.10;99.90;;;;;;8373893;28;19929;-70
2022/08/20 20:06:32;;;;;;;;;;;21.00;99.90;;;;;;8387149;28;20410;-69
2022/08/20 20:10:35;;;;;;;;;;;20.90;99.90;;;;;;8383567;28;19920;-69
2022/08/20 20:14:37;;;;;;;;;;;20.90;99.90;;;;;;8391126;28;23879;-69
2022/08/20 20:18:39;;;;;;;;;;;20.80;99.90;;;;;;8391218;28;20508;-69
2022/08/20 20:22:53;;;;;;;;;;;20.70;99.90;;;;;;8391088;28;19920;-70
2022/08/20 20:26:57;;;;;;;;;;;20.70;99.90;;;;;;8391103;28;20388;-69
2022/08/20 20:31:09;;;;;;;;;;;20.60;99.90;;;;;;8388896;28;19928;-69
2022/08/20 20:35:21;;;;;;;;;;;20.40;99.90;;;;;;8379901;28;20300;-69
2022/08/20 20:39:31;;;;;;;;;;;20.30;99.90;;;;;;8380233;28;20038;-69
2022/08/20 20:43:38;;;;;;;;;;;20.30;99.90;;;;;;8389991;28;19932;-69
2022/08/20 20:47:46;;;;;;;;;;;20.20;99.90;;;;;;8392195;28;19935;-69
2022/08/20 20:51:52;;;;;;;;;;;20.10;99.90;;;;;;8386473;28;19936;-69
2022/08/20 20:55:55;;;;;;;;;;;20.00;99.90;;;;;;8386987;28;19924;-69
2022/08/20 20:59:57;;;;;;;;;;;19.90;99.90;;;;;;8386772;28;19928;-69
2022/08/20 21:03:58;;;;;;;;;;;19.90;99.90;;;;;;8421961;28;19919;-69
2022/08/20 21:08:02;;;;;;;;;;;19.90;99.90;;;;;;8420783;28;19932;-69
2022/08/20 21:12:04;;;;;;;;;;;19.80;99.90;;;;;;8432213;28;19923;-69
2022/08/20 21:16:06;;;;;;;;;;;19.70;99.90;;;;;;8426655;28;20374;-69
2022/08/20 21:20:08;;;;;;;;;;;19.60;99.90;;;;;;8410995;28;20389;-69
2022/08/20 21:24:10;;;;;;;;;;;19.60;99.90;;;;;;8430472;28;20332;-69
2022/08/20 21:28:12;;;;;;;;;;;19.50;99.90;;;;;;8412381;27;19920;-69
2022/08/20 21:32:15;;;;;;;;;;;19.40;99.90;;;;;;8421357;28;19919;-69
2022/08/20 21:36:16;;;;;;;;;;;19.40;99.90;;;;;;8394608;28;19920;-69
2022/08/20 21:40:18;;;;;;;;;;;19.30;99.90;;;;;;8416291;28;19924;-69
2022/08/20 21:44:24;;;;;;;;;;;19.30;99.90;;;;;;8432708;28;19920;-69
2022/08/20 21:48:26;;;;;;;;;;;19.20;99.90;;;;;;8418518;28;20355;-69
2022/08/20 21:52:27;;;;;;;;;;;19.10;99.90;;;;;;8448968;28;19926;-69
2022/08/20 21:56:32;;;;;;;;;;;19.00;99.90;;;;;;8421694;28;20407;-69
2022/08/20 22:00:46;;;;;;;;;;;18.90;99.90;;;;;;8417905;28;20294;-69
2022/08/20 22:04:48;;;;;;;;;;;18.90;99.90;;;;;;8432582;28;20359;-69
2022/08/20 22:08:49;;;;;;;;;;;18.80;99.90;;;;;;8413225;28;19919;-69
2022/08/20 22:12:51;;;;;;;;;;;18.70;99.90;;;;;;8423815;28;19999;-69
2022/08/20 22:16:53;;;;;;;;;;;18.70;99.90;;;;;;8419276;28;19920;-69
2022/08/20 22:20:55;;;;;;;;;;;18.60;99.90;;;;;;8440603;28;19919;-69
2022/08/20 22:24:56;;;;;;;;;;;18.50;99.90;;;;;;8430041;28;19930;-69
2022/08/20 22:28:58;;;;;;;;;;;18.50;99.90;;;;;;8411665;28;19921;-69
2022/08/20 22:33:01;;;;;;;;;;;18.40;99.90;;;;;;8411253;28;19924;-69
2022/08/20 22:37:03;;;;;;;;;;;18.40;99.90;;;;;;8392480;28;19928;-69
2022/08/20 22:41:05;;;;;;;;;;;18.40;99.90;;;;;;8415516;28;19929;-69
2022/08/20 22:45:10;;;;;;;;;;;18.30;99.90;;;;;;8409845;28;20020;-69
2022/08/20 22:49:16;;;;;;;;;;;18.30;99.90;;;;;;8410448;28;20865;-69
2022/08/20 22:53:19;;;;;;;;;;;18.20;99.90;;;;;;8415088;28;19928;-69
2022/08/20 22:57:21;;;;;;;;;;;18.20;99.90;;;;;;8417485;28;19924;-69
2022/08/20 23:01:22;;;;;;;;;;;18.10;99.90;;;;;;8412116;28;19927;-69
2022/08/20 23:05:25;;;;;;;;;;;18.10;99.90;;;;;;8404260;28;19932;-69
2022/08/20 23:09:28;;;;;;;;;;;18.00;99.90;;;;;;8416379;28;20251;-69
2022/08/20 23:13:30;;;;;;;;;;;18.00;99.90;;;;;;8393744;28;20395;-69
2022/08/20 23:17:32;;;;;;;;;;;18.00;99.90;;;;;;8428387;28;19943;-69
2022/08/20 23:21:34;;;;;;;;;;;17.90;99.90;;;;;;8415120;28;19925;-69
2022/08/20 23:25:36;;;;;;;;;;;17.90;99.90;;;;;;8395682;28;19920;-69
2022/08/20 23:29:40;;;;;;;;;;;17.80;99.90;;;;;;8422107;28;19924;-69
2022/08/20 23:33:41;;;;;;;;;;;17.80;99.90;;;;;;8433317;28;19926;-69
2022/08/20 23:37:47;;;;;;;;;;;17.80;99.90;;;;;;8394119;28;19974;-69